Terminal Aerodrome Forecast
Issued by NWS

Home | Current Version | Previous Version | Text Only | Print | Product List | Glossary On
Versions: 1 2 3 4 5 6 7 8 9 10 11 12
291
FTUS42 KFFC 282329
TAFRYY
TAF
KRYY 282329Z 2900/2924 19008KT P6SM SCT045
     FM290100 19005KT P6SM FEW250
     FM291100 16003KT 4SM BR FEW008 SCT020
     FM291300 16005KT P6SM FEW010 SCT020
     FM291600 16008KT P6SM SCT040
      AMD NOT SKED 2904/2912=

USA.gov is the U.S. government's official web portal to all federal, state and local government web resources and services.